28  °C
Temperature
82  °F
Temperature
61  °F
 Dewpoint
16  °C
  Dewpoint
48  %
 Humidity
  Temperature
8  km/h
Wind Speed
4  kts
Wind Speed
5  mph
Wind Speed
2.2  m/s
Wind Speed
310°
North West

Wind Speed
Clear
Conditions
Pressure 1013.92 (hPa) - 29.94 (inHG)
Visibility 10.0 (km) - 6.2 (mi)

Sky Conditions
LGSA
Location Chania International 80 km (49.72 mi)
Metar :LGSA 221720Z 31004KT CAVOK 28/16 Q1014
Mon 22nd July 20:20 pm

Nearest Airport
https://www.checkwx.com/weather/LGSA
  Metar Aviation API Data Provided by https://www.checkwx.com/ Original CSS/SVG/PHP scripts by weather34.com © 2015-2019